sensor_id;sensor_type;location;lat;lon;timestamp;P1;durP1;ratioP1;P2;durP2;ratioP2
78458;SDS011;67753;42.684;23.330;2023-04-03T00:00:46;7.53;;;5.50;;
78458;SDS011;67753;42.684;23.330;2023-04-03T00:02:50;10.30;;;7.73;;
78458;SDS011;67753;42.684;23.330;2023-04-03T00:04:52;7.40;;;6.70;;
78458;SDS011;67753;42.684;23.330;2023-04-03T00:06:55;7.57;;;6.33;;
78458;SDS011;67753;42.684;23.330;2023-04-03T00:08:57;8.43;;;5.67;;
78458;SDS011;67753;42.684;23.330;2023-04-03T00:10:58;6.27;;;5.60;;
78458;SDS011;67753;42.684;23.330;2023-04-03T00:13:00;7.03;;;5.03;;
78458;SDS011;67753;42.684;23.330;2023-04-03T00:15:02;7.67;;;5.50;;
78458;SDS011;67753;42.684;23.330;2023-04-03T00:17:05;6.10;;;5.50;;
78458;SDS011;67753;42.684;23.330;2023-04-03T00:19:09;7.93;;;5.93;;
78458;SDS011;67753;42.684;23.330;2023-04-03T00:21:12;7.27;;;6.53;;
78458;SDS011;67753;42.684;23.330;2023-04-03T00:23:15;8.87;;;7.10;;
78458;SDS011;67753;42.684;23.330;2023-04-03T00:25:18;8.73;;;6.97;;
78458;SDS011;67753;42.684;23.330;2023-04-03T00:27:21;10.10;;;7.37;;
78458;SDS011;67753;42.684;23.330;2023-04-03T00:29:22;10.20;;;7.93;;
78458;SDS011;67753;42.684;23.330;2023-04-03T00:31:24;7.27;;;6.50;;
78458;SDS011;67753;42.684;23.330;2023-04-03T00:33:26;7.90;;;7.20;;
78458;SDS011;67753;42.684;23.330;2023-04-03T00:35:29;9.20;;;7.30;;
78458;SDS011;67753;42.684;23.330;2023-04-03T00:37:31;11.30;;;6.97;;
78458;SDS011;67753;42.684;23.330;2023-04-03T00:39:33;7.67;;;6.87;;
78458;SDS011;67753;42.684;23.330;2023-04-03T00:41:35;8.07;;;7.20;;
78458;SDS011;67753;42.684;23.330;2023-04-03T00:43:36;11.60;;;7.57;;
78458;SDS011;67753;42.684;23.330;2023-04-03T00:45:39;7.67;;;6.93;;
78458;SDS011;67753;42.684;23.330;2023-04-03T00:47:42;8.17;;;7.30;;
78458;SDS011;67753;42.684;23.330;2023-04-03T00:49:44;9.00;;;7.67;;
78458;SDS011;67753;42.684;23.330;2023-04-03T00:51:48;10.00;;;8.77;;
78458;SDS011;67753;42.684;23.330;2023-04-03T00:53:51;8.63;;;7.83;;
78458;SDS011;67753;42.684;23.330;2023-04-03T00:56:02;9.43;;;7.33;;
78458;SDS011;67753;42.684;23.330;2023-04-03T00:58:09;8.43;;;6.97;;
78458;SDS011;67753;42.684;23.330;2023-04-03T01:00:12;8.50;;;7.70;;
78458;SDS011;67753;42.684;23.330;2023-04-03T01:02:18;8.80;;;7.53;;
78458;SDS011;67753;42.684;23.330;2023-04-03T01:04:26;7.87;;;6.80;;
78458;SDS011;67753;42.684;23.330;2023-04-03T01:06:30;8.57;;;6.67;;
78458;SDS011;67753;42.684;23.330;2023-04-03T01:08:36;7.80;;;5.97;;
78458;SDS011;67753;42.684;23.330;2023-04-03T01:10:40;6.30;;;5.70;;
78458;SDS011;67753;42.684;23.330;2023-04-03T01:12:43;6.40;;;5.90;;
78458;SDS011;67753;42.684;23.330;2023-04-03T01:14:46;8.73;;;6.83;;
78458;SDS011;67753;42.684;23.330;2023-04-03T01:16:53;8.37;;;6.73;;
78458;SDS011;67753;42.684;23.330;2023-04-03T01:18:56;7.77;;;6.37;;
78458;SDS011;67753;42.684;23.330;2023-04-03T01:23:33;7.57;;;6.80;;
78458;SDS011;67753;42.684;23.330;2023-04-03T01:25:54;8.53;;;6.77;;
78458;SDS011;67753;42.684;23.330;2023-04-03T01:27:58;8.07;;;6.90;;
78458;SDS011;67753;42.684;23.330;2023-04-03T01:30:00;12.00;;;7.17;;
78458;SDS011;67753;42.684;23.330;2023-04-03T01:32:05;8.20;;;7.27;;
78458;SDS011;67753;42.684;23.330;2023-04-03T01:34:08;8.30;;;7.00;;
78458;SDS011;67753;42.684;23.330;2023-04-03T01:36:13;6.53;;;5.87;;
78458;SDS011;67753;42.684;23.330;2023-04-03T01:38:17;11.27;;;7.10;;
78458;SDS011;67753;42.684;23.330;2023-04-03T01:40:20;8.60;;;7.30;;
78458;SDS011;67753;42.684;23.330;2023-04-03T01:42:22;7.60;;;6.90;;
78458;SDS011;67753;42.684;23.330;2023-04-03T01:44:24;9.50;;;6.70;;
78458;SDS011;67753;42.684;23.330;2023-04-03T01:46:26;7.77;;;6.97;;
78458;SDS011;67753;42.684;23.330;2023-04-03T01:48:30;8.10;;;6.80;;
78458;SDS011;67753;42.684;23.330;2023-04-03T01:50:31;8.50;;;6.87;;
78458;SDS011;67753;42.684;23.330;2023-04-03T01:52:34;7.10;;;6.40;;
78458;SDS011;67753;42.684;23.330;2023-04-03T01:54:39;7.30;;;6.53;;
78458;SDS011;67753;42.684;23.330;2023-04-03T01:56:41;5.67;;;5.07;;
78458;SDS011;67753;42.684;23.330;2023-04-03T01:58:43;5.63;;;5.13;;
78458;SDS011;67753;42.684;23.330;2023-04-03T02:00:45;6.13;;;4.53;;
78458;SDS011;67753;42.684;23.330;2023-04-03T02:02:47;5.60;;;4.40;;
78458;SDS011;67753;42.684;23.330;2023-04-03T02:04:52;5.63;;;4.57;;
78458;SDS011;67753;42.684;23.330;2023-04-03T02:06:54;5.33;;;4.57;;
78458;SDS011;67753;42.684;23.330;2023-04-03T02:08:56;4.97;;;3.90;;
78458;SDS011;67753;42.684;23.330;2023-04-03T02:10:58;5.27;;;4.77;;
78458;SDS011;67753;42.684;23.330;2023-04-03T02:13:01;4.97;;;4.47;;
78458;SDS011;67753;42.684;23.330;2023-04-03T02:15:03;5.17;;;4.70;;
78458;SDS011;67753;42.684;23.330;2023-04-03T02:17:06;5.47;;;4.93;;
78458;SDS011;67753;42.684;23.330;2023-04-03T02:19:08;6.70;;;5.23;;
78458;SDS011;67753;42.684;23.330;2023-04-03T02:21:11;5.60;;;4.97;;
78458;SDS011;67753;42.684;23.330;2023-04-03T02:23:13;6.77;;;4.83;;
78458;SDS011;67753;42.684;23.330;2023-04-03T02:25:15;6.00;;;5.37;;
78458;SDS011;67753;42.684;23.330;2023-04-03T02:27:18;7.47;;;5.60;;
78458;SDS011;67753;42.684;23.330;2023-04-03T02:29:20;6.07;;;5.47;;
78458;SDS011;67753;42.684;23.330;2023-04-03T02:31:23;5.90;;;5.40;;
78458;SDS011;67753;42.684;23.330;2023-04-03T02:33:25;5.70;;;5.20;;
78458;SDS011;67753;42.684;23.330;2023-04-03T02:35:27;6.90;;;5.03;;
78458;SDS011;67753;42.684;23.330;2023-04-03T02:37:30;5.07;;;4.67;;
78458;SDS011;67753;42.684;23.330;2023-04-03T02:39:32;5.53;;;4.93;;
78458;SDS011;67753;42.684;23.330;2023-04-03T02:41:36;6.13;;;5.53;;
78458;SDS011;67753;42.684;23.330;2023-04-03T02:43:37;5.97;;;5.47;;
78458;SDS011;67753;42.684;23.330;2023-04-03T02:45:39;6.20;;;5.70;;
78458;SDS011;67753;42.684;23.330;2023-04-03T02:47:41;5.50;;;5.00;;
78458;SDS011;67753;42.684;23.330;2023-04-03T02:49:43;5.60;;;5.10;;
78458;SDS011;67753;42.684;23.330;2023-04-03T02:51:46;5.97;;;5.37;;
78458;SDS011;67753;42.684;23.330;2023-04-03T02:53:49;6.23;;;5.20;;
78458;SDS011;67753;42.684;23.330;2023-04-03T02:55:51;5.17;;;4.77;;
78458;SDS011;67753;42.684;23.330;2023-04-03T02:57:53;5.40;;;4.90;;
78458;SDS011;67753;42.684;23.330;2023-04-03T02:59:55;6.03;;;5.43;;
78458;SDS011;67753;42.684;23.330;2023-04-03T03:01:57;8.17;;;5.93;;
78458;SDS011;67753;42.684;23.330;2023-04-03T03:04:00;6.73;;;6.13;;
78458;SDS011;67753;42.684;23.330;2023-04-03T03:06:03;10.17;;;5.47;;
78458;SDS011;67753;42.684;23.330;2023-04-03T03:08:06;7.23;;;5.83;;
78458;SDS011;67753;42.684;23.330;2023-04-03T03:10:10;7.30;;;5.90;;
78458;SDS011;67753;42.684;23.330;2023-04-03T03:12:12;8.50;;;6.50;;
78458;SDS011;67753;42.684;23.330;2023-04-03T03:14:14;8.23;;;6.40;;
78458;SDS011;67753;42.684;23.330;2023-04-03T03:16:16;7.97;;;6.80;;
78458;SDS011;67753;42.684;23.330;2023-04-03T03:18:18;6.60;;;6.10;;
78458;SDS011;67753;42.684;23.330;2023-04-03T03:20:20;8.40;;;6.90;;
78458;SDS011;67753;42.684;23.330;2023-04-03T03:22:22;6.80;;;6.10;;
78458;SDS011;67753;42.684;23.330;2023-04-03T03:24:24;7.27;;;6.30;;
78458;SDS011;67753;42.684;23.330;2023-04-03T03:26:28;6.43;;;5.83;;
78458;SDS011;67753;42.684;23.330;2023-04-03T03:28:31;6.00;;;5.40;;
78458;SDS011;67753;42.684;23.330;2023-04-03T03:30:34;7.30;;;5.57;;
78458;SDS011;67753;42.684;23.330;2023-04-03T03:32:36;6.50;;;5.90;;
78458;SDS011;67753;42.684;23.330;2023-04-03T03:34:39;6.13;;;5.57;;
78458;SDS011;67753;42.684;23.330;2023-04-03T03:36:40;7.80;;;6.33;;
78458;SDS011;67753;42.684;23.330;2023-04-03T03:38:42;6.93;;;6.23;;
78458;SDS011;67753;42.684;23.330;2023-04-03T03:40:44;8.33;;;7.50;;
78458;SDS011;67753;42.684;23.330;2023-04-03T03:42:49;10.57;;;7.87;;
78458;SDS011;67753;42.684;23.330;2023-04-03T03:44:54;8.97;;;8.00;;
78458;SDS011;67753;42.684;23.330;2023-04-03T03:46:55;9.23;;;8.17;;
78458;SDS011;67753;42.684;23.330;2023-04-03T03:48:57;9.40;;;8.37;;
78458;SDS011;67753;42.684;23.330;2023-04-03T03:50:59;9.13;;;7.87;;
78458;SDS011;67753;42.684;23.330;2023-04-03T03:53:01;11.13;;;8.67;;
78458;SDS011;67753;42.684;23.330;2023-04-03T03:55:04;9.20;;;8.00;;
78458;SDS011;67753;42.684;23.330;2023-04-03T03:57:06;11.00;;;7.87;;
78458;SDS011;67753;42.684;23.330;2023-04-03T03:59:12;9.47;;;8.43;;
78458;SDS011;67753;42.684;23.330;2023-04-03T04:01:13;8.57;;;7.57;;
78458;SDS011;67753;42.684;23.330;2023-04-03T04:03:17;10.63;;;8.33;;
78458;SDS011;67753;42.684;23.330;2023-04-03T04:05:18;11.07;;;8.70;;
78458;SDS011;67753;42.684;23.330;2023-04-03T04:07:20;13.17;;;8.20;;
78458;SDS011;67753;42.684;23.330;2023-04-03T04:09:22;9.20;;;8.20;;
78458;SDS011;67753;42.684;23.330;2023-04-03T04:11:24;10.20;;;8.20;;
78458;SDS011;67753;42.684;23.330;2023-04-03T04:13:27;10.83;;;8.83;;
78458;SDS011;67753;42.684;23.330;2023-04-03T04:15:31;9.77;;;8.77;;
78458;SDS011;67753;42.684;23.330;2023-04-03T04:17:32;12.57;;;9.20;;
78458;SDS011;67753;42.684;23.330;2023-04-03T04:19:35;10.20;;;8.77;;
78458;SDS011;67753;42.684;23.330;2023-04-03T04:21:38;9.67;;;8.67;;
78458;SDS011;67753;42.684;23.330;2023-04-03T04:23:39;10.97;;;8.40;;
78458;SDS011;67753;42.684;23.330;2023-04-03T04:25:43;10.13;;;9.13;;
78458;SDS011;67753;42.684;23.330;2023-04-03T04:27:45;11.83;;;8.23;;
78458;SDS011;67753;42.684;23.330;2023-04-03T04:29:47;10.23;;;8.63;;
78458;SDS011;67753;42.684;23.330;2023-04-03T04:31:50;9.97;;;8.87;;
78458;SDS011;67753;42.684;23.330;2023-04-03T04:33:52;10.90;;;8.40;;
78458;SDS011;67753;42.684;23.330;2023-04-03T04:35:55;9.13;;;8.33;;
78458;SDS011;67753;42.684;23.330;2023-04-03T04:37:56;10.67;;;9.30;;
78458;SDS011;67753;42.684;23.330;2023-04-03T04:40:00;59.50;;;43.10;;
78458;SDS011;67753;42.684;23.330;2023-04-03T04:42:03;138.93;;;98.83;;
78458;SDS011;67753;42.684;23.330;2023-04-03T04:44:08;149.33;;;107.50;;
78458;SDS011;67753;42.684;23.330;2023-04-03T04:46:10;88.53;;;65.77;;
78458;SDS011;67753;42.684;23.330;2023-04-03T04:48:16;54.20;;;40.03;;
78458;SDS011;67753;42.684;23.330;2023-04-03T04:50:18;22.67;;;17.90;;
78458;SDS011;67753;42.684;23.330;2023-04-03T04:52:21;20.83;;;15.53;;
78458;SDS011;67753;42.684;23.330;2023-04-03T04:54:23;15.47;;;12.80;;
78458;SDS011;67753;42.684;23.330;2023-04-03T04:56:25;24.00;;;18.17;;
78458;SDS011;67753;42.684;23.330;2023-04-03T04:58:27;23.20;;;17.57;;
78458;SDS011;67753;42.684;23.330;2023-04-03T05:00:30;18.50;;;13.37;;
78458;SDS011;67753;42.684;23.330;2023-04-03T05:02:32;16.67;;;11.40;;
78458;SDS011;67753;42.684;23.330;2023-04-03T05:04:35;13.07;;;11.27;;
78458;SDS011;67753;42.684;23.330;2023-04-03T05:06:38;11.90;;;10.00;;
78458;SDS011;67753;42.684;23.330;2023-04-03T05:08:39;11.90;;;9.77;;
78458;SDS011;67753;42.684;23.330;2023-04-03T05:10:41;12.63;;;11.00;;
78458;SDS011;67753;42.684;23.330;2023-04-03T05:12:43;10.73;;;9.63;;
78458;SDS011;67753;42.684;23.330;2023-04-03T05:14:45;12.77;;;10.03;;
78458;SDS011;67753;42.684;23.330;2023-04-03T05:16:47;12.57;;;11.13;;
78458;SDS011;67753;42.684;23.330;2023-04-03T05:18:49;13.60;;;10.37;;
78458;SDS011;67753;42.684;23.330;2023-04-03T05:20:52;11.60;;;10.20;;
78458;SDS011;67753;42.684;23.330;2023-04-03T05:22:54;14.37;;;11.30;;
78458;SDS011;67753;42.684;23.330;2023-04-03T05:24:56;15.13;;;10.67;;
78458;SDS011;67753;42.684;23.330;2023-04-03T05:26:58;13.97;;;10.63;;
78458;SDS011;67753;42.684;23.330;2023-04-03T05:29:00;10.87;;;9.77;;
78458;SDS011;67753;42.684;23.330;2023-04-03T05:31:02;12.97;;;9.90;;
78458;SDS011;67753;42.684;23.330;2023-04-03T05:33:03;13.50;;;10.50;;
78458;SDS011;67753;42.684;23.330;2023-04-03T05:35:12;12.93;;;9.93;;
78458;SDS011;67753;42.684;23.330;2023-04-03T05:37:15;16.20;;;11.00;;
78458;SDS011;67753;42.684;23.330;2023-04-03T05:39:18;43.60;;;12.97;;
78458;SDS011;67753;42.684;23.330;2023-04-03T05:41:20;22.87;;;11.73;;
78458;SDS011;67753;42.684;23.330;2023-04-03T05:43:22;14.77;;;11.03;;
78458;SDS011;67753;42.684;23.330;2023-04-03T05:45:23;17.17;;;11.37;;
78458;SDS011;67753;42.684;23.330;2023-04-03T05:47:26;18.97;;;11.57;;
78458;SDS011;67753;42.684;23.330;2023-04-03T05:49:27;17.43;;;12.57;;
78458;SDS011;67753;42.684;23.330;2023-04-03T05:51:30;14.67;;;12.80;;
78458;SDS011;67753;42.684;23.330;2023-04-03T05:53:37;18.57;;;13.37;;
78458;SDS011;67753;42.684;23.330;2023-04-03T05:55:39;19.17;;;13.70;;
78458;SDS011;67753;42.684;23.330;2023-04-03T05:57:41;18.30;;;14.00;;
78458;SDS011;67753;42.684;23.330;2023-04-03T05:59:43;20.80;;;13.93;;
78458;SDS011;67753;42.684;23.330;2023-04-03T06:01:46;22.43;;;13.83;;
78458;SDS011;67753;42.684;23.330;2023-04-03T06:03:49;17.63;;;13.70;;
78458;SDS011;67753;42.684;23.330;2023-04-03T06:05:51;16.77;;;13.10;;
78458;SDS011;67753;42.684;23.330;2023-04-03T06:07:53;16.50;;;12.57;;
78458;SDS011;67753;42.684;23.330;2023-04-03T06:09:58;15.57;;;12.67;;
78458;SDS011;67753;42.684;23.330;2023-04-03T06:12:01;17.27;;;12.93;;
78458;SDS011;67753;42.684;23.330;2023-04-03T06:14:05;14.73;;;13.17;;
78458;SDS011;67753;42.684;23.330;2023-04-03T06:16:08;17.60;;;13.97;;
78458;SDS011;67753;42.684;23.330;2023-04-03T06:18:10;15.70;;;13.23;;
78458;SDS011;67753;42.684;23.330;2023-04-03T06:20:12;16.53;;;13.80;;
78458;SDS011;67753;42.684;23.330;2023-04-03T06:22:14;16.17;;;13.97;;
78458;SDS011;67753;42.684;23.330;2023-04-03T06:24:17;20.87;;;14.47;;
78458;SDS011;67753;42.684;23.330;2023-04-03T06:26:23;16.17;;;14.37;;
78458;SDS011;67753;42.684;23.330;2023-04-03T06:28:25;16.10;;;13.93;;
78458;SDS011;67753;42.684;23.330;2023-04-03T06:30:26;19.97;;;14.77;;
78458;SDS011;67753;42.684;23.330;2023-04-03T06:32:28;17.17;;;15.37;;
78458;SDS011;67753;42.684;23.330;2023-04-03T06:34:31;20.00;;;16.67;;
78458;SDS011;67753;42.684;23.330;2023-04-03T06:36:33;19.90;;;16.07;;
78458;SDS011;67753;42.684;23.330;2023-04-03T06:38:35;17.83;;;15.23;;
78458;SDS011;67753;42.684;23.330;2023-04-03T06:40:37;17.93;;;15.67;;
78458;SDS011;67753;42.684;23.330;2023-04-03T06:42:42;20.80;;;15.67;;
78458;SDS011;67753;42.684;23.330;2023-04-03T06:44:44;20.03;;;17.50;;
78458;SDS011;67753;42.684;23.330;2023-04-03T06:46:46;18.67;;;16.77;;
78458;SDS011;67753;42.684;23.330;2023-04-03T06:48:50;22.53;;;19.10;;
78458;SDS011;67753;42.684;23.330;2023-04-03T06:50:52;25.57;;;18.57;;
78458;SDS011;67753;42.684;23.330;2023-04-03T06:52:55;27.77;;;20.73;;
78458;SDS011;67753;42.684;23.330;2023-04-03T06:54:58;22.07;;;17.87;;
78458;SDS011;67753;42.684;23.330;2023-04-03T06:57:01;18.97;;;16.83;;
78458;SDS011;67753;42.684;23.330;2023-04-03T06:59:05;23.63;;;16.40;;
78458;SDS011;67753;42.684;23.330;2023-04-03T07:01:07;25.17;;;15.67;;
78458;SDS011;67753;42.684;23.330;2023-04-03T07:03:10;18.23;;;15.87;;
78458;SDS011;67753;42.684;23.330;2023-04-03T07:05:12;18.10;;;15.93;;
78458;SDS011;67753;42.684;23.330;2023-04-03T07:07:14;18.93;;;15.53;;
78458;SDS011;67753;42.684;23.330;2023-04-03T07:09:18;19.03;;;15.63;;
78458;SDS011;67753;42.684;23.330;2023-04-03T07:11:21;25.03;;;14.93;;
78458;SDS011;67753;42.684;23.330;2023-04-03T07:13:24;16.10;;;13.53;;
78458;SDS011;67753;42.684;23.330;2023-04-03T07:15:28;17.13;;;12.23;;
78458;SDS011;67753;42.684;23.330;2023-04-03T07:17:29;15.67;;;12.53;;
78458;SDS011;67753;42.684;23.330;2023-04-03T07:19:32;16.67;;;13.53;;
78458;SDS011;67753;42.684;23.330;2023-04-03T07:21:34;15.67;;;13.07;;
78458;SDS011;67753;42.684;23.330;2023-04-03T07:23:37;16.17;;;12.90;;
78458;SDS011;67753;42.684;23.330;2023-04-03T07:25:42;17.47;;;13.57;;
78458;SDS011;67753;42.684;23.330;2023-04-03T07:27:44;13.50;;;11.57;;
78458;SDS011;67753;42.684;23.330;2023-04-03T07:29:46;14.37;;;11.70;;
78458;SDS011;67753;42.684;23.330;2023-04-03T07:31:50;10.53;;;9.33;;
78458;SDS011;67753;42.684;23.330;2023-04-03T07:33:52;10.70;;;9.60;;
78458;SDS011;67753;42.684;23.330;2023-04-03T07:35:54;11.07;;;9.47;;
78458;SDS011;67753;42.684;23.330;2023-04-03T07:37:56;15.17;;;9.70;;
78458;SDS011;67753;42.684;23.330;2023-04-03T07:39:59;11.47;;;9.13;;
78458;SDS011;67753;42.684;23.330;2023-04-03T07:42:03;11.50;;;9.53;;
78458;SDS011;67753;42.684;23.330;2023-04-03T07:44:05;10.70;;;9.67;;
78458;SDS011;67753;42.684;23.330;2023-04-03T07:46:10;12.43;;;9.27;;
78458;SDS011;67753;42.684;23.330;2023-04-03T07:48:14;12.90;;;9.87;;
78458;SDS011;67753;42.684;23.330;2023-04-03T07:50:17;17.10;;;13.43;;
78458;SDS011;67753;42.684;23.330;2023-04-03T07:52:19;15.73;;;12.57;;
78458;SDS011;67753;42.684;23.330;2023-04-03T07:54:21;17.47;;;15.40;;
78458;SDS011;67753;42.684;23.330;2023-04-03T07:56:24;26.50;;;16.07;;
78458;SDS011;67753;42.684;23.330;2023-04-03T07:58:26;22.67;;;15.63;;
78458;SDS011;67753;42.684;23.330;2023-04-03T08:00:28;16.47;;;13.57;;
78458;SDS011;67753;42.684;23.330;2023-04-03T08:02:30;16.47;;;14.30;;
78458;SDS011;67753;42.684;23.330;2023-04-03T08:04:34;21.80;;;17.13;;
78458;SDS011;67753;42.684;23.330;2023-04-03T08:06:36;23.70;;;15.13;;
78458;SDS011;67753;42.684;23.330;2023-04-03T08:08:38;16.63;;;14.60;;
78458;SDS011;67753;42.684;23.330;2023-04-03T08:10:40;14.50;;;13.10;;
78458;SDS011;67753;42.684;23.330;2023-04-03T08:12:45;24.87;;;18.60;;
78458;SDS011;67753;42.684;23.330;2023-04-03T08:14:49;30.03;;;23.27;;
78458;SDS011;67753;42.684;23.330;2023-04-03T08:16:51;33.17;;;26.37;;
78458;SDS011;67753;42.684;23.330;2023-04-03T08:18:53;23.77;;;19.87;;
78458;SDS011;67753;42.684;23.330;2023-04-03T08:20:58;35.47;;;29.00;;
78458;SDS011;67753;42.684;23.330;2023-04-03T08:23:00;19.03;;;16.37;;
78458;SDS011;67753;42.684;23.330;2023-04-03T08:25:02;16.40;;;14.67;;
78458;SDS011;67753;42.684;23.330;2023-04-03T08:27:06;20.70;;;17.27;;
78458;SDS011;67753;42.684;23.330;2023-04-03T08:29:09;19.07;;;16.10;;
78458;SDS011;67753;42.684;23.330;2023-04-03T08:31:11;24.07;;;20.23;;
78458;SDS011;67753;42.684;23.330;2023-04-03T08:33:18;21.43;;;18.70;;
78458;SDS011;67753;42.684;23.330;2023-04-03T08:35:20;20.57;;;16.13;;
78458;SDS011;67753;42.684;23.330;2023-04-03T08:37:24;19.17;;;17.13;;
78458;SDS011;67753;42.684;23.330;2023-04-03T08:39:26;19.87;;;17.50;;
78458;SDS011;67753;42.684;23.330;2023-04-03T08:41:29;23.77;;;18.10;;
78458;SDS011;67753;42.684;23.330;2023-04-03T08:43:36;24.77;;;19.80;;
78458;SDS011;67753;42.684;23.330;2023-04-03T08:45:45;27.40;;;21.40;;
78458;SDS011;67753;42.684;23.330;2023-04-03T08:47:52;22.63;;;20.30;;
78458;SDS011;67753;42.684;23.330;2023-04-03T08:50:01;24.60;;;20.10;;
78458;SDS011;67753;42.684;23.330;2023-04-03T08:52:09;26.73;;;20.40;;
78458;SDS011;67753;42.684;23.330;2023-04-03T08:54:19;21.67;;;19.43;;
78458;SDS011;67753;42.684;23.330;2023-04-03T08:56:30;20.50;;;18.40;;
78458;SDS011;67753;42.684;23.330;2023-04-03T08:58:35;20.57;;;18.23;;
78458;SDS011;67753;42.684;23.330;2023-04-03T09:00:44;20.00;;;17.90;;
78458;SDS011;67753;42.684;23.330;2023-04-03T09:02:49;20.23;;;17.27;;
78458;SDS011;67753;42.684;23.330;2023-04-03T09:04:52;19.83;;;17.00;;
78458;SDS011;67753;42.684;23.330;2023-04-03T09:06:57;18.33;;;16.40;;
78458;SDS011;67753;42.684;23.330;2023-04-03T09:09:07;23.03;;;17.17;;
78458;SDS011;67753;42.684;23.330;2023-04-03T09:11:19;17.67;;;15.43;;
78458;SDS011;67753;42.684;23.330;2023-04-03T09:13:27;17.47;;;14.23;;
78458;SDS011;67753;42.684;23.330;2023-04-03T09:15:34;17.13;;;15.30;;
78458;SDS011;67753;42.684;23.330;2023-04-03T09:17:40;22.10;;;18.30;;
78458;SDS011;67753;42.684;23.330;2023-04-03T09:19:48;86.37;;;73.30;;
78458;SDS011;67753;42.684;23.330;2023-04-03T09:21:58;63.97;;;57.03;;
78458;SDS011;67753;42.684;23.330;2023-04-03T09:24:04;26.73;;;22.93;;
78458;SDS011;67753;42.684;23.330;2023-04-03T09:26:09;36.67;;;32.67;;
78458;SDS011;67753;42.684;23.330;2023-04-03T09:28:18;34.03;;;30.40;;
78458;SDS011;67753;42.684;23.330;2023-04-03T09:30:21;47.20;;;38.33;;
78458;SDS011;67753;42.684;23.330;2023-04-03T09:32:26;33.28;;;26.88;;
78458;SDS011;67753;42.684;23.330;2023-04-03T09:34:31;18.93;;;16.63;;
78458;SDS011;67753;42.684;23.330;2023-04-03T09:36:41;31.30;;;27.17;;
78458;SDS011;67753;42.684;23.330;2023-04-03T09:38:44;30.73;;;27.30;;
78458;SDS011;67753;42.684;23.330;2023-04-03T09:40:49;26.77;;;21.03;;
78458;SDS011;67753;42.684;23.330;2023-04-03T09:42:59;16.70;;;14.30;;
78458;SDS011;67753;42.684;23.330;2023-04-03T09:45:04;14.80;;;13.30;;
78458;SDS011;67753;42.684;23.330;2023-04-03T09:47:18;14.37;;;12.63;;
78458;SDS011;67753;42.684;23.330;2023-04-03T09:49:24;16.77;;;13.70;;
78458;SDS011;67753;42.684;23.330;2023-04-03T09:51:27;15.20;;;13.00;;
78458;SDS011;67753;42.684;23.330;2023-04-03T09:53:35;15.80;;;14.20;;
78458;SDS011;67753;42.684;23.330;2023-04-03T09:55:41;18.17;;;13.20;;
78458;SDS011;67753;42.684;23.330;2023-04-03T09:57:45;15.10;;;13.70;;
78458;SDS011;67753;42.684;23.330;2023-04-03T09:59:56;16.27;;;14.47;;
78458;SDS011;67753;42.684;23.330;2023-04-03T10:02:02;15.60;;;14.05;;
78458;SDS011;67753;42.684;23.330;2023-04-03T10:04:19;17.63;;;13.97;;
78458;SDS011;67753;42.684;23.330;2023-04-03T10:06:24;15.05;;;13.57;;
78458;SDS011;67753;42.684;23.330;2023-04-03T10:08:27;21.08;;;18.85;;
78458;SDS011;67753;42.684;23.330;2023-04-03T10:10:30;22.57;;;19.07;;
78458;SDS011;67753;42.684;23.330;2023-04-03T10:12:32;19.40;;;17.07;;
78458;SDS011;67753;42.684;23.330;2023-04-03T10:14:34;16.52;;;14.73;;
78458;SDS011;67753;42.684;23.330;2023-04-03T10:16:38;17.00;;;15.02;;
78458;SDS011;67753;42.684;23.330;2023-04-03T10:18:46;17.30;;;13.83;;
78458;SDS011;67753;42.684;23.330;2023-04-03T10:20:51;16.20;;;13.07;;
78458;SDS011;67753;42.684;23.330;2023-04-03T10:22:59;14.57;;;11.17;;
78458;SDS011;67753;42.684;23.330;2023-04-03T10:25:09;11.73;;;10.53;;
78458;SDS011;67753;42.684;23.330;2023-04-03T10:27:26;12.60;;;10.33;;
78458;SDS011;67753;42.684;23.330;2023-04-03T10:29:36;14.57;;;10.47;;
78458;SDS011;67753;42.684;23.330;2023-04-03T10:31:43;15.93;;;10.93;;
78458;SDS011;67753;42.684;23.330;2023-04-03T10:33:57;10.33;;;9.30;;
78458;SDS011;67753;42.684;23.330;2023-04-03T10:36:07;12.03;;;9.33;;
78458;SDS011;67753;42.684;23.330;2023-04-03T10:38:18;11.17;;;8.93;;
78458;SDS011;67753;42.684;23.330;2023-04-03T10:40:28;11.53;;;9.27;;
78458;SDS011;67753;42.684;23.330;2023-04-03T10:42:39;11.70;;;8.30;;
78458;SDS011;67753;42.684;23.330;2023-04-03T10:44:52;10.30;;;8.43;;
78458;SDS011;67753;42.684;23.330;2023-04-03T10:47:05;9.97;;;8.20;;
78458;SDS011;67753;42.684;23.330;2023-04-03T10:49:22;9.17;;;8.10;;
78458;SDS011;67753;42.684;23.330;2023-04-03T10:51:37;10.47;;;8.10;;
78458;SDS011;67753;42.684;23.330;2023-04-03T10:53:47;11.47;;;7.33;;
78458;SDS011;67753;42.684;23.330;2023-04-03T10:55:56;7.83;;;7.13;;
78458;SDS011;67753;42.684;23.330;2023-04-03T10:58:05;8.53;;;6.40;;
78458;SDS011;67753;42.684;23.330;2023-04-03T11:00:13;9.47;;;6.40;;
78458;SDS011;67753;42.684;23.330;2023-04-03T11:02:22;8.53;;;6.40;;
78458;SDS011;67753;42.684;23.330;2023-04-03T11:04:28;7.70;;;5.77;;
78458;SDS011;67753;42.684;23.330;2023-04-03T11:06:35;6.87;;;5.30;;
78458;SDS011;67753;42.684;23.330;2023-04-03T11:08:42;9.13;;;6.13;;
78458;SDS011;67753;42.684;23.330;2023-04-03T11:10:48;6.87;;;5.27;;
78458;SDS011;67753;42.684;23.330;2023-04-03T11:12:52;5.60;;;5.10;;
78458;SDS011;67753;42.684;23.330;2023-04-03T11:14:59;8.43;;;4.83;;
78458;SDS011;67753;42.684;23.330;2023-04-03T11:17:11;5.70;;;5.20;;
78458;SDS011;67753;42.684;23.330;2023-04-03T11:19:20;5.53;;;5.03;;
78458;SDS011;67753;42.684;23.330;2023-04-03T11:21:29;7.40;;;4.40;;
78458;SDS011;67753;42.684;23.330;2023-04-03T11:23:36;6.47;;;5.00;;
78458;SDS011;67753;42.684;23.330;2023-04-03T11:25:41;4.50;;;4.10;;
78458;SDS011;67753;42.684;23.330;2023-04-03T11:27:44;9.27;;;4.33;;
78458;SDS011;67753;42.684;23.330;2023-04-03T11:29:50;5.30;;;3.97;;
78458;SDS011;67753;42.684;23.330;2023-04-03T11:32:02;4.90;;;4.50;;
78458;SDS011;67753;42.684;23.330;2023-04-03T11:34:17;7.13;;;5.40;;
78458;SDS011;67753;42.684;23.330;2023-04-03T11:36:29;6.40;;;4.20;;
78458;SDS011;67753;42.684;23.330;2023-04-03T11:38:35;4.30;;;3.97;;
78458;SDS011;67753;42.684;23.330;2023-04-03T11:40:40;5.10;;;4.30;;
78458;SDS011;67753;42.684;23.330;2023-04-03T11:42:46;5.23;;;4.70;;
78458;SDS011;67753;42.684;23.330;2023-04-03T11:44:50;4.30;;;3.90;;
78458;SDS011;67753;42.684;23.330;2023-04-03T11:46:52;5.87;;;4.50;;
78458;SDS011;67753;42.684;23.330;2023-04-03T11:48:55;4.07;;;3.67;;
78458;SDS011;67753;42.684;23.330;2023-04-03T11:50:57;4.47;;;4.07;;
78458;SDS011;67753;42.684;23.330;2023-04-03T11:53:02;6.17;;;3.90;;
78458;SDS011;67753;42.684;23.330;2023-04-03T11:55:52;4.07;;;3.67;;
78458;SDS011;67753;42.684;23.330;2023-04-03T11:58:04;4.30;;;3.77;;
78458;SDS011;67753;42.684;23.330;2023-04-03T12:02:53;4.20;;;3.90;;
78458;SDS011;67753;42.684;23.330;2023-04-03T12:07:32;3.53;;;3.13;;
78458;SDS011;67753;42.684;23.330;2023-04-03T12:14:38;3.73;;;3.13;;
78458;SDS011;67753;42.684;23.330;2023-04-03T12:16:42;4.27;;;3.97;;
78458;SDS011;67753;42.684;23.330;2023-04-03T12:18:54;6.53;;;3.60;;